Terminal Aerodrome Forecast
Issued by NWS

Home | Current Version | Previous Version | Text Only | Print | Product List | Glossary On
Versions: 1 2 3 4 5 6 7 8 9 10 11 12
260
FTUS46 KSEW 290523
TAFHQM
TAF
KHQM 290523Z 2906/3006 27007KT P6SM SCT012 BKN020
     FM291200 22004KT 4SM -SHRA SCT006 OVC012
     FM291900 26012KT P6SM VCSH BKN025
     FM292200 28016G23KT P6SM SCT025 OVC050
     FM300500 29010KT P6SM SCT050 BKN100
      AMD NOT SKED=

USA.gov is the U.S. government's official web portal to all federal, state and local government web resources and services.